Time;durP1;ratioP1;P1;durP2;ratioP2;P2;SDS_P1;SDS_P2;PMS_P1;PMS_P2;Temp;Humidity;BMP_temperature;BMP_pressure;BME280_temperature;BME280_humidity;BME280_pressure;Samples;Min_cycle;Max_cycle;Signal;HPM_P1;HPM_P2
2023/09/16 00:00:09;;;;;;;4.80;3.60;;;;;;;;;;495975;28;1279;-79
2023/09/16 00:00:25;;;;;;;4.78;3.47;;;;;;;;;;496364;28;1379;-79
2023/09/16 00:00:40;;;;;;;4.43;3.42;;;;;;;;;;494423;28;1289;-79
2023/09/16 00:00:56;;;;;;;4.77;3.47;;;;;;;;;;493319;28;1065;-79
2023/09/16 00:01:12;;;;;;;4.78;3.35;;;;;;;;;;494685;28;1276;-79
2023/09/16 00:01:28;;;;;;;4.70;3.45;;;;;;;;;;497726;28;1427;-79
2023/09/16 00:01:44;;;;;;;4.70;3.50;;;;;;;;;;496317;28;1374;-80
2023/09/16 00:01:59;;;;;;;4.70;3.70;;;;;;;;;;493555;28;1356;-79
2023/09/16 00:02:16;;;;;;;4.13;3.70;;;;;;;;;;497395;28;1444;-78
2023/09/16 00:02:31;;;;;;;4.55;3.60;;;;;;;;;;496142;28;971;-79
2023/09/16 00:02:48;;;;;;;5.05;3.65;;;;;;;;;;496133;28;1341;-79
2023/09/16 00:03:06;;;;;;;3.95;3.30;;;;;;;;;;497111;28;928;-79
2023/09/16 00:03:22;;;;;;;3.70;3.10;;;;;;;;;;492992;28;1172;-79
2023/09/16 00:03:38;;;;;;;4.68;3.20;;;;;;;;;;492955;28;1675;-79
2023/09/16 00:03:54;;;;;;;6.13;3.57;;;;;;;;;;492984;28;1042;-79
2023/09/16 00:04:11;;;;;;;5.40;3.72;;;;;;;;;;496104;28;1148;-79
2023/09/16 00:04:27;;;;;;;4.45;3.53;;;;;;;;;;496930;28;1211;-79
2023/09/16 00:04:42;;;;;;;4.00;3.40;;;;;;;;;;497123;28;1180;-79
2023/09/16 00:04:58;;;;;;;5.25;3.50;;;;;;;;;;495839;28;1276;-79
2023/09/16 00:05:13;;;;;;;5.70;3.80;;;;;;;;;;495544;28;1095;-79
2023/09/16 00:05:30;;;;;;;4.53;3.63;;;;;;;;;;496069;28;1193;-79
2023/09/16 00:05:46;;;;;;;4.47;3.60;;;;;;;;;;496465;28;1288;-80
2023/09/16 00:06:04;;;;;;;5.53;3.50;;;;;;;;;;496962;28;1254;-79
2023/09/16 00:06:19;;;;;;;5.93;3.70;;;;;;;;;;497928;28;1070;-79
2023/09/16 00:06:36;;;;;;;5.57;3.85;;;;;;;;;;498276;28;943;-79
2023/09/16 00:06:51;;;;;;;5.15;3.58;;;;;;;;;;498856;28;1381;-79
2023/09/16 00:07:08;;;;;;;3.73;3.27;;;;;;;;;;499706;28;1219;-79
2023/09/16 00:07:23;;;;;;;3.50;3.20;;;;;;;;;;493290;28;1054;-79
2023/09/16 00:07:39;;;;;;;3.75;3.30;;;;;;;;;;488353;28;1254;-79
2023/09/16 00:07:54;;;;;;;3.70;3.30;;;;;;;;;;487481;29;1314;-79
2023/09/16 00:08:10;;;;;;;3.55;3.25;;;;;;;;;;486350;29;1992;-79
2023/09/16 00:08:25;;;;;;;3.40;3.10;;;;;;;;;;492110;28;983;-79
2023/09/16 00:08:43;;;;;;;3.72;3.33;;;;;;;;;;496806;28;999;-79
2023/09/16 00:08:58;;;;;;;4.18;3.53;;;;;;;;;;495774;28;1354;-78
2023/09/16 00:09:14;;;;;;;4.63;3.70;;;;;;;;;;496157;28;1133;-79
2023/09/16 00:09:30;;;;;;;5.13;3.72;;;;;;;;;;495350;28;1257;-80
2023/09/16 00:09:47;;;;;;;4.70;3.70;;;;;;;;;;496377;28;1245;-79
2023/09/16 00:10:02;;;;;;;4.00;3.60;;;;;;;;;;495461;28;1027;-79
2023/09/16 00:10:18;;;;;;;4.68;3.58;;;;;;;;;;496136;28;1266;-79
2023/09/16 00:10:34;;;;;;;6.35;3.83;;;;;;;;;;495293;28;1055;-79
2023/09/16 00:10:49;;;;;;;5.63;3.72;;;;;;;;;;496676;28;1176;-79
2023/09/16 00:11:09;;;;;;;5.00;3.60;;;;;;;;;;493863;28;1210;-80
2023/09/16 00:11:25;;;;;;;4.47;3.38;;;;;;;;;;494267;28;1262;-79
2023/09/16 00:11:41;;;;;;;4.00;3.60;;;;;;;;;;495367;28;1430;-79
2023/09/16 00:11:56;;;;;;;4.68;3.85;;;;;;;;;;495768;28;1202;-79
2023/09/16 00:12:13;;;;;;;5.43;3.80;;;;;;;;;;498461;28;1088;-80
2023/09/16 00:12:28;;;;;;;4.90;3.60;;;;;;;;;;495129;28;1184;-79
2023/09/16 00:12:44;;;;;;;5.43;3.80;;;;;;;;;;497164;28;1196;-79
2023/09/16 00:13:00;;;;;;;5.70;4.00;;;;;;;;;;496517;28;1205;-79
2023/09/16 00:13:16;;;;;;;4.88;3.90;;;;;;;;;;498600;28;1415;-80
2023/09/16 00:13:31;;;;;;;4.50;4.00;;;;;;;;;;498621;28;1343;-79
2023/09/16 00:13:47;;;;;;;4.53;3.75;;;;;;;;;;496501;28;1212;-79
2023/09/16 00:14:02;;;;;;;5.07;3.73;;;;;;;;;;495059;28;1566;-79
2023/09/16 00:14:19;;;;;;;5.43;3.80;;;;;;;;;;498006;28;1120;-79
2023/09/16 00:14:36;;;;;;;6.00;3.80;;;;;;;;;;498839;28;1360;-79
2023/09/16 00:14:52;;;;;;;6.13;3.70;;;;;;;;;;496943;28;1277;-79
2023/09/16 00:15:08;;;;;;;4.95;3.53;;;;;;;;;;496437;28;1244;-79
2023/09/16 00:15:25;;;;;;;4.75;3.58;;;;;;;;;;493816;28;1263;-79
2023/09/16 00:15:45;;;;;;;5.20;3.78;;;;;;;;;;494463;28;1264;-79
2023/09/16 00:16:01;;;;;;;4.93;3.67;;;;;;;;;;494444;28;966;-78
2023/09/16 00:16:16;;;;;;;4.10;3.70;;;;;;;;;;496234;28;1216;-78
2023/09/16 00:16:32;;;;;;;4.32;3.92;;;;;;;;;;497334;28;1311;-79
2023/09/16 00:16:49;;;;;;;5.40;4.00;;;;;;;;;;497570;28;1255;-79
2023/09/16 00:17:05;;;;;;;5.72;3.78;;;;;;;;;;496804;28;1159;-79
2023/09/16 00:17:21;;;;;;;4.78;3.65;;;;;;;;;;496759;28;1311;-79
2023/09/16 00:17:37;;;;;;;4.85;3.75;;;;;;;;;;495812;28;1200;-79
2023/09/16 00:17:53;;;;;;;4.90;3.90;;;;;;;;;;495529;28;1289;-79
2023/09/16 00:18:08;;;;;;;4.70;3.78;;;;;;;;;;493129;28;1160;-79
2023/09/16 00:18:24;;;;;;;5.05;3.67;;;;;;;;;;493036;28;1287;-79
2023/09/16 00:18:40;;;;;;;5.23;3.77;;;;;;;;;;498092;28;1201;-79
2023/09/16 00:18:56;;;;;;;4.75;3.70;;;;;;;;;;498600;28;1272;-79
2023/09/16 00:19:12;;;;;;;4.05;3.63;;;;;;;;;;499526;28;1134;-79
2023/09/16 00:19:29;;;;;;;4.95;3.65;;;;;;;;;;497362;28;1219;-79
2023/09/16 00:19:45;;;;;;;6.05;3.80;;;;;;;;;;496977;28;1115;-78
2023/09/16 00:20:04;;;;;;;5.38;3.70;;;;;;;;;;497835;28;1419;-79
2023/09/16 00:20:19;;;;;;;5.10;3.47;;;;;;;;;;498363;28;1333;-79
2023/09/16 00:20:36;;;;;;;4.88;3.40;;;;;;;;;;497253;28;1403;-79
2023/09/16 00:20:52;;;;;;;4.78;3.63;;;;;;;;;;497832;28;1354;-79
2023/09/16 00:21:10;;;;;;;4.65;3.70;;;;;;;;;;498110;28;1287;-79
2023/09/16 00:21:26;;;;;;;4.60;3.65;;;;;;;;;;499930;28;1256;-79
2023/09/16 00:21:45;;;;;;;4.50;3.67;;;;;;;;;;499252;28;1230;-79
2023/09/16 00:22:04;;;;;;;5.22;3.75;;;;;;;;;;499607;28;1410;-79
2023/09/16 00:22:21;;;;;;;5.47;3.60;;;;;;;;;;500262;28;1550;-79
2023/09/16 00:22:36;;;;;;;5.05;3.30;;;;;;;;;;499835;28;1030;-78
2023/09/16 00:22:52;;;;;;;4.90;3.50;;;;;;;;;;499544;28;1116;-79
2023/09/16 00:23:09;;;;;;;4.70;3.87;;;;;;;;;;497326;28;1154;-79
2023/09/16 00:23:24;;;;;;;4.88;3.80;;;;;;;;;;498129;28;1613;-79
2023/09/16 00:23:41;;;;;;;4.60;3.60;;;;;;;;;;498317;28;1281;-80
2023/09/16 00:23:57;;;;;;;3.92;3.50;;;;;;;;;;498823;28;1087;-81
2023/09/16 00:24:14;;;;;;;4.53;3.60;;;;;;;;;;498007;28;1345;-80
2023/09/16 00:24:30;;;;;;;7.50;3.80;;;;;;;;;;497954;28;927;-80
2023/09/16 00:24:45;;;;;;;5.85;3.70;;;;;;;;;;500146;28;1195;-80
2023/09/16 00:25:01;;;;;;;4.50;3.60;;;;;;;;;;497260;28;1363;-81
2023/09/16 00:25:17;;;;;;;4.45;3.60;;;;;;;;;;495041;28;1363;-80
2023/09/16 00:25:33;;;;;;;4.13;3.50;;;;;;;;;;495692;28;1352;-80
2023/09/16 00:25:49;;;;;;;4.00;3.50;;;;;;;;;;493628;28;1359;-80
2023/09/16 00:26:04;;;;;;;3.72;3.30;;;;;;;;;;495463;28;1170;-81
2023/09/16 00:26:20;;;;;;;4.40;3.50;;;;;;;;;;496654;28;1272;-80
2023/09/16 00:26:36;;;;;;;5.18;3.60;;;;;;;;;;494700;28;1491;-80
2023/09/16 00:26:53;;;;;;;5.05;3.60;;;;;;;;;;497468;28;1239;-80
2023/09/16 00:27:09;;;;;;;5.00;3.90;;;;;;;;;;499279;28;1395;-80
2023/09/16 00:27:25;;;;;;;4.45;3.80;;;;;;;;;;500428;28;1074;-79
2023/09/16 00:27:41;;;;;;;4.75;3.83;;;;;;;;;;501981;28;1018;-80
2023/09/16 00:27:56;;;;;;;5.15;3.83;;;;;;;;;;500721;28;1365;-79
2023/09/16 00:28:12;;;;;;;4.73;3.50;;;;;;;;;;497392;28;2033;-80
2023/09/16 00:28:27;;;;;;;4.05;3.47;;;;;;;;;;497576;28;1233;-80
2023/09/16 00:28:43;;;;;;;4.55;3.67;;;;;;;;;;499340;28;971;-80
2023/09/16 00:28:59;;;;;;;4.72;3.58;;;;;;;;;;496101;28;1390;-80
2023/09/16 00:29:14;;;;;;;4.70;3.53;;;;;;;;;;496104;28;1136;-80
2023/09/16 00:29:30;;;;;;;5.85;3.75;;;;;;;;;;495741;28;886;-80
2023/09/16 00:29:45;;;;;;;6.23;3.80;;;;;;;;;;492669;28;1065;-80
2023/09/16 00:30:03;;;;;;;6.53;3.75;;;;;;;;;;495229;28;1354;-80
2023/09/16 00:30:18;;;;;;;6.00;3.70;;;;;;;;;;498178;28;1549;-80
2023/09/16 00:30:42;;;;;;;4.78;3.78;;;;;;;;;;498348;28;1337;-80
2023/09/16 00:31:00;;;;;;;4.50;3.90;;;;;;;;;;498685;28;1097;-80
2023/09/16 00:31:16;;;;;;;4.75;3.60;;;;;;;;;;499807;28;1278;-80
2023/09/16 00:31:34;;;;;;;4.82;3.50;;;;;;;;;;499405;28;1471;-80
2023/09/16 00:31:50;;;;;;;5.00;3.70;;;;;;;;;;500937;28;1042;-79
2023/09/16 00:32:05;;;;;;;5.03;3.60;;;;;;;;;;496901;28;1183;-80
2023/09/16 00:32:22;;;;;;;4.23;3.47;;;;;;;;;;495240;28;1177;-80
2023/09/16 00:32:37;;;;;;;4.75;3.60;;;;;;;;;;496775;28;1471;-79
2023/09/16 00:32:53;;;;;;;5.43;3.90;;;;;;;;;;497370;28;1237;-80
2023/09/16 00:33:08;;;;;;;5.85;4.20;;;;;;;;;;499521;28;1326;-80
2023/09/16 00:33:25;;;;;;;5.37;3.83;;;;;;;;;;498828;28;1161;-78
2023/09/16 00:33:40;;;;;;;4.40;3.60;;;;;;;;;;500136;28;1089;-80
2023/09/16 00:33:56;;;;;;;4.63;3.78;;;;;;;;;;499825;28;906;-80
2023/09/16 00:34:12;;;;;;;5.63;3.93;;;;;;;;;;498063;28;1129;-80
2023/09/16 00:34:27;;;;;;;6.68;4.00;;;;;;;;;;499082;28;1180;-79
2023/09/16 00:34:43;;;;;;;5.30;3.90;;;;;;;;;;498272;28;1316;-80
2023/09/16 00:34:58;;;;;;;4.57;3.83;;;;;;;;;;497138;28;1089;-79
2023/09/16 00:35:17;;;;;;;4.90;3.60;;;;;;;;;;498110;28;1312;-81
2023/09/16 00:35:33;;;;;;;4.85;3.42;;;;;;;;;;496545;28;1202;-80
2023/09/16 00:35:48;;;;;;;4.43;3.60;;;;;;;;;;495565;28;1310;-80
2023/09/16 00:36:04;;;;;;;4.35;3.60;;;;;;;;;;494871;28;1045;-79
2023/09/16 00:36:19;;;;;;;5.25;3.72;;;;;;;;;;495499;28;1133;-79
2023/09/16 00:36:36;;;;;;;5.83;3.90;;;;;;;;;;495812;28;1311;-80
2023/09/16 00:36:52;;;;;;;5.20;3.75;;;;;;;;;;495789;28;1199;-79
2023/09/16 00:37:07;;;;;;;4.60;3.70;;;;;;;;;;496945;28;1159;-80
2023/09/16 00:37:23;;;;;;;4.87;3.80;;;;;;;;;;498025;28;1290;-80
2023/09/16 00:37:39;;;;;;;5.57;3.80;;;;;;;;;;495847;28;1238;-79
2023/09/16 00:37:54;;;;;;;5.57;3.83;;;;;;;;;;494603;28;1212;-80
2023/09/16 00:38:10;;;;;;;4.90;3.73;;;;;;;;;;497139;28;1285;-80
2023/09/16 00:38:25;;;;;;;5.00;3.65;;;;;;;;;;496946;28;1316;-79
2023/09/16 00:38:42;;;;;;;5.70;3.87;;;;;;;;;;496884;28;1138;-80
2023/09/16 00:38:58;;;;;;;4.93;3.88;;;;;;;;;;498119;28;1438;-80
2023/09/16 00:39:14;;;;;;;4.45;3.70;;;;;;;;;;497103;28;1026;-79
2023/09/16 00:39:29;;;;;;;4.93;3.80;;;;;;;;;;497066;28;1113;-79
2023/09/16 00:39:45;;;;;;;4.93;3.92;;;;;;;;;;496953;28;1172;-80
2023/09/16 00:40:00;;;;;;;4.38;3.88;;;;;;;;;;496694;28;1083;-80
2023/09/16 00:40:17;;;;;;;4.13;3.60;;;;;;;;;;495302;28;1132;-80
2023/09/16 00:40:32;;;;;;;5.25;3.90;;;;;;;;;;495187;28;1131;-79
2023/09/16 00:40:48;;;;;;;6.22;4.00;;;;;;;;;;497549;28;1203;-79
2023/09/16 00:41:03;;;;;;;5.47;3.80;;;;;;;;;;497940;28;1384;-81
2023/09/16 00:41:19;;;;;;;4.70;3.70;;;;;;;;;;496760;28;1261;-80
2023/09/16 00:41:36;;;;;;;4.57;3.60;;;;;;;;;;497870;28;1331;-79
2023/09/16 00:41:51;;;;;;;4.10;3.60;;;;;;;;;;495370;28;1081;-80
2023/09/16 00:42:07;;;;;;;4.77;3.83;;;;;;;;;;495921;28;1219;-80
2023/09/16 00:42:23;;;;;;;5.22;3.80;;;;;;;;;;493915;28;1301;-80
2023/09/16 00:42:38;;;;;;;4.30;3.60;;;;;;;;;;497836;28;1113;-80
2023/09/16 00:42:54;;;;;;;4.13;3.70;;;;;;;;;;499666;28;1205;-79
2023/09/16 00:43:09;;;;;;;4.43;3.80;;;;;;;;;;499995;28;1527;-80
2023/09/16 00:43:25;;;;;;;4.20;3.80;;;;;;;;;;501141;28;1341;-80
2023/09/16 00:43:40;;;;;;;4.10;3.70;;;;;;;;;;499092;28;1234;-79
2023/09/16 00:43:56;;;;;;;4.40;4.00;;;;;;;;;;499415;28;1014;-80
2023/09/16 00:44:11;;;;;;;4.68;4.15;;;;;;;;;;500532;28;1190;-79
2023/09/16 00:44:27;;;;;;;5.10;4.17;;;;;;;;;;500067;28;1176;-80
2023/09/16 00:44:43;;;;;;;4.63;3.90;;;;;;;;;;496286;28;1079;-80
2023/09/16 00:44:59;;;;;;;4.35;3.70;;;;;;;;;;497973;28;1249;-80
2023/09/16 00:45:14;;;;;;;4.47;3.83;;;;;;;;;;494909;28;1312;-81
2023/09/16 00:45:30;;;;;;;4.73;3.70;;;;;;;;;;498996;28;1315;-80
2023/09/16 00:45:46;;;;;;;5.57;3.70;;;;;;;;;;498433;28;1386;-80
2023/09/16 00:46:01;;;;;;;5.40;3.90;;;;;;;;;;498205;28;1165;-80
2023/09/16 00:46:17;;;;;;;5.95;3.90;;;;;;;;;;495593;28;1258;-80
2023/09/16 00:46:32;;;;;;;6.20;4.10;;;;;;;;;;497170;28;1299;-80
2023/09/16 00:46:50;;;;;;;4.68;4.00;;;;;;;;;;497010;28;983;-80
2023/09/16 00:47:05;;;;;;;4.32;3.80;;;;;;;;;;494361;28;1616;-79
2023/09/16 00:47:21;;;;;;;4.47;3.80;;;;;;;;;;494700;28;1202;-80
2023/09/16 00:47:37;;;;;;;4.73;3.90;;;;;;;;;;492692;28;1148;-80
2023/09/16 00:47:52;;;;;;;6.13;4.17;;;;;;;;;;493759;28;1261;-80
2023/09/16 00:48:11;;;;;;;6.03;4.20;;;;;;;;;;492777;28;1390;-80
2023/09/16 00:48:27;;;;;;;4.63;3.95;;;;;;;;;;494966;28;1092;-80
2023/09/16 00:48:45;;;;;;;5.78;3.88;;;;;;;;;;496247;28;1363;-79
2023/09/16 00:49:00;;;;;;;5.15;3.60;;;;;;;;;;497192;28;1465;-80
2023/09/16 00:49:16;;;;;;;4.95;3.78;;;;;;;;;;495350;28;1365;-79
2023/09/16 00:49:32;;;;;;;5.18;4.22;;;;;;;;;;497299;28;1175;-80
2023/09/16 00:49:47;;;;;;;5.13;4.30;;;;;;;;;;497047;28;1146;-80
2023/09/16 00:50:07;;;;;;;5.40;4.13;;;;;;;;;;497184;28;1444;-79
2023/09/16 00:50:22;;;;;;;5.53;3.95;;;;;;;;;;496176;28;1429;-80
2023/09/16 00:50:39;;;;;;;5.63;4.03;;;;;;;;;;495196;28;1336;-80
2023/09/16 00:50:55;;;;;;;4.57;3.90;;;;;;;;;;498170;28;1080;-80
2023/09/16 00:51:13;;;;;;;4.38;3.70;;;;;;;;;;498985;28;1140;-80
2023/09/16 00:51:30;;;;;;;4.78;3.75;;;;;;;;;;498930;28;1210;-79
2023/09/16 00:51:45;;;;;;;3.95;3.55;;;;;;;;;;499699;28;1260;-80
2023/09/16 00:52:02;;;;;;;4.20;3.75;;;;;;;;;;496792;28;1268;-80
2023/09/16 00:52:18;;;;;;;4.55;3.95;;;;;;;;;;497549;28;1172;-80
2023/09/16 00:52:37;;;;;;;4.07;3.60;;;;;;;;;;497108;28;1340;-80
2023/09/16 00:52:55;;;;;;;4.90;3.90;;;;;;;;;;495426;28;1432;-80
2023/09/16 00:53:14;;;;;;;4.45;3.80;;;;;;;;;;494237;28;1259;-79
2023/09/16 00:53:29;;;;;;;5.00;3.90;;;;;;;;;;496684;28;1233;-80
2023/09/16 00:53:45;;;;;;;5.45;4.20;;;;;;;;;;496993;28;1114;-80
2023/09/16 00:54:01;;;;;;;6.03;4.20;;;;;;;;;;496752;28;991;-79
2023/09/16 00:54:17;;;;;;;6.10;4.10;;;;;;;;;;497340;28;1227;-80
2023/09/16 00:54:33;;;;;;;4.80;3.90;;;;;;;;;;499009;28;1360;-80
2023/09/16 00:54:51;;;;;;;4.40;3.80;;;;;;;;;;501311;28;1241;-80
2023/09/16 00:55:08;;;;;;;5.13;3.90;;;;;;;;;;496815;28;1172;-80
2023/09/16 00:55:26;;;;;;;5.03;4.00;;;;;;;;;;496908;28;1268;-80
2023/09/16 00:55:44;;;;;;;4.13;3.63;;;;;;;;;;497618;28;1246;-81
2023/09/16 00:55:59;;;;;;;3.90;3.50;;;;;;;;;;498435;28;1288;-79
2023/09/16 00:56:15;;;;;;;3.70;3.30;;;;;;;;;;493593;28;1199;-80
2023/09/16 00:56:31;;;;;;;3.75;3.10;;;;;;;;;;492634;28;1259;-80
2023/09/16 00:56:47;;;;;;;4.03;3.43;;;;;;;;;;494068;28;1218;-80
2023/09/16 00:57:08;;;;;;;4.40;3.90;;;;;;;;;;494977;28;1202;-80
2023/09/16 00:57:23;;;;;;;4.40;4.00;;;;;;;;;;494041;28;984;-80
2023/09/16 00:57:42;;;;;;;5.18;4.00;;;;;;;;;;496236;28;1547;-79
2023/09/16 00:57:58;;;;;;;6.20;4.00;;;;;;;;;;495866;28;1230;-80
2023/09/16 00:58:17;;;;;;;5.65;4.18;;;;;;;;;;497018;28;1443;-79
2023/09/16 00:58:34;;;;;;;5.90;4.18;;;;;;;;;;498613;28;1179;-79
2023/09/16 00:58:49;;;;;;;5.80;4.20;;;;;;;;;;496223;28;1091;-80
2023/09/16 00:59:05;;;;;;;6.30;4.13;;;;;;;;;;495618;28;1172;-79
2023/09/16 00:59:23;;;;;;;6.15;3.90;;;;;;;;;;497201;28;1161;-80
2023/09/16 00:59:39;;;;;;;5.88;4.10;;;;;;;;;;496609;28;1164;-80
2023/09/16 00:59:54;;;;;;;5.90;4.10;;;;;;;;;;496284;28;1244;-80
2023/09/16 01:00:11;;;;;;;5.40;4.00;;;;;;;;;;500603;22;1959;-80
2023/09/16 01:00:28;;;;;;;5.07;4.03;;;;;;;;;;488890;28;2369;-79
2023/09/16 01:00:46;;;;;;;4.15;3.60;;;;;;;;;;486823;28;1223;-80
2023/09/16 01:01:02;;;;;;;4.47;3.53;;;;;;;;;;486996;28;1150;-80
2023/09/16 01:01:18;;;;;;;4.75;3.72;;;;;;;;;;491361;28;1282;-80
2023/09/16 01:01:37;;;;;;;4.70;3.95;;;;;;;;;;479069;28;1514;-79
2023/09/16 01:01:56;;;;;;;4.70;3.90;;;;;;;;;;481571;28;1047;-80
2023/09/16 01:02:14;;;;;;;3.95;3.50;;;;;;;;;;488789;28;1304;-80
2023/09/16 01:02:29;;;;;;;4.03;3.63;;;;;;;;;;482715;28;1149;-80
2023/09/16 01:02:46;;;;;;;4.60;3.90;;;;;;;;;;489722;28;1257;-80
2023/09/16 01:03:04;;;;;;;4.65;3.88;;;;;;;;;;480885;28;1283;-80
2023/09/16 01:03:20;;;;;;;5.07;3.90;;;;;;;;;;482765;28;1263;-80
2023/09/16 01:03:37;;;;;;;6.20;3.90;;;;;;;;;;475501;29;1236;-81
2023/09/16 01:03:53;;;;;;;5.32;3.90;;;;;;;;;;477322;28;1347;-82
2023/09/16 01:04:09;;;;;;;4.43;3.90;;;;;;;;;;481702;29;1144;-80
2023/09/16 01:04:25;;;;;;;4.65;3.80;;;;;;;;;;483819;28;1184;-80
2023/09/16 01:04:42;;;;;;;5.13;3.85;;;;;;;;;;491502;28;1117;-80
2023/09/16 01:04:57;;;;;;;4.82;3.97;;;;;;;;;;490081;28;1132;-80
2023/09/16 01:05:17;;;;;;;4.40;3.78;;;;;;;;;;490699;28;1056;-80
2023/09/16 01:05:34;;;;;;;4.55;3.75;;;;;;;;;;481183;28;1153;-81
2023/09/16 01:05:51;;;;;;;4.53;3.80;;;;;;;;;;484914;28;1535;-81
2023/09/16 01:06:10;;;;;;;4.32;3.70;;;;;;;;;;484504;28;1335;-80
2023/09/16 01:06:25;;;;;;;4.22;3.80;;;;;;;;;;483823;28;1357;-81
2023/09/16 01:06:43;;;;;;;4.05;3.65;;;;;;;;;;484736;28;1318;-81
2023/09/16 01:06:59;;;;;;;4.28;3.67;;;;;;;;;;484493;28;1438;-81
2023/09/16 01:07:14;;;;;;;4.75;3.83;;;;;;;;;;489092;28;1144;-80
2023/09/16 01:07:31;;;;;;;5.35;3.83;;;;;;;;;;480816;28;1259;-80
2023/09/16 01:07:47;;;;;;;5.37;4.00;;;;;;;;;;483373;28;1201;-80
2023/09/16 01:08:04;;;;;;;5.07;4.10;;;;;;;;;;482020;28;1139;-80
2023/09/16 01:08:22;;;;;;;4.80;3.92;;;;;;;;;;487906;28;1959;-81
2023/09/16 01:08:38;;;;;;;4.43;3.80;;;;;;;;;;484795;28;1051;-80
2023/09/16 01:08:54;;;;;;;4.82;3.80;;;;;;;;;;489911;28;1355;-81
2023/09/16 01:09:15;;;;;;;5.22;3.83;;;;;;;;;;492030;28;1015;-80
2023/09/16 01:09:32;;;;;;;4.78;3.78;;;;;;;;;;486335;28;1132;-81
2023/09/16 01:09:48;;;;;;;4.15;3.75;;;;;;;;;;484572;28;1375;-80
2023/09/16 01:10:04;;;;;;;4.93;3.83;;;;;;;;;;486465;28;1098;-80
2023/09/16 01:10:20;;;;;;;5.07;3.90;;;;;;;;;;490674;28;979;-80
2023/09/16 01:10:36;;;;;;;4.85;3.95;;;;;;;;;;482262;28;1152;-81
2023/09/16 01:10:52;;;;;;;5.57;3.92;;;;;;;;;;481381;28;1430;-80
2023/09/16 01:11:08;;;;;;;5.27;3.87;;;;;;;;;;484201;28;1164;-80
2023/09/16 01:11:24;;;;;;;4.65;3.95;;;;;;;;;;481177;28;1112;-81
2023/09/16 01:11:40;;;;;;;4.95;4.00;;;;;;;;;;480331;28;1251;-80
2023/09/16 01:11:56;;;;;;;5.22;4.10;;;;;;;;;;487803;28;1157;-80
2023/09/16 01:12:12;;;;;;;5.27;4.00;;;;;;;;;;488919;28;1167;-80
2023/09/16 01:12:28;;;;;;;5.10;4.00;;;;;;;;;;481732;28;1249;-81
2023/09/16 01:12:45;;;;;;;4.35;3.95;;;;;;;;;;480921;28;1281;-79
2023/09/16 01:13:02;;;;;;;4.70;3.80;;;;;;;;;;480184;28;1209;-81
2023/09/16 01:13:17;;;;;;;4.68;3.80;;;;;;;;;;486502;28;1292;-81
2023/09/16 01:13:33;;;;;;;4.80;4.00;;;;;;;;;;481059;28;1052;-81
2023/09/16 01:13:50;;;;;;;4.72;3.85;;;;;;;;;;480219;28;1379;-79
2023/09/16 01:14:05;;;;;;;3.80;3.35;;;;;;;;;;482978;28;1194;-80
2023/09/16 01:14:21;;;;;;;3.67;3.37;;;;;;;;;;488080;28;1195;-80
2023/09/16 01:14:37;;;;;;;4.03;3.63;;;;;;;;;;481156;28;1337;-80
2023/09/16 01:14:53;;;;;;;4.25;3.85;;;;;;;;;;483020;28;1314;-81
2023/09/16 01:15:10;;;;;;;4.28;3.80;;;;;;;;;;485889;28;1244;-81
2023/09/16 01:15:31;;;;;;;4.43;3.83;;;;;;;;;;483747;28;1011;-81
2023/09/16 01:16:11;;;;;;;4.50;3.80;;;;;;;;;;482921;28;1445;-80
2023/09/16 01:16:37;;;;;;;5.88;4.10;;;;;;;;;;483857;28;1054;-80
2023/09/16 01:17:00;;;;;;;5.65;4.10;;;;;;;;;;489631;28;1153;-80
2023/09/16 01:17:21;;;;;;;4.20;3.78;;;;;;;;;;496886;28;1103;-79
2023/09/16 01:17:48;;;;;;;4.63;3.90;;;;;;;;;;490783;28;1151;-80
2023/09/16 01:18:21;;;;;;;3.90;3.50;;;;;;;;;;491370;28;1141;-80
2023/09/16 01:18:42;;;;;;;5.05;3.83;;;;;;;;;;484795;28;1000;-80
2023/09/16 01:19:11;;;;;;;4.80;3.83;;;;;;;;;;480515;28;1285;-79
2023/09/16 01:19:52;;;;;;;4.18;3.78;;;;;;;;;;484065;28;1188;-80
2023/09/16 01:20:15;;;;;;;5.00;3.90;;;;;;;;;;490857;28;1127;-80
2023/09/16 01:20:32;;;;;;;5.80;3.97;;;;;;;;;;485812;28;1258;-81
2023/09/16 01:20:49;;;;;;;5.95;4.20;;;;;;;;;;485617;28;1370;-80
2023/09/16 01:21:06;;;;;;;5.88;4.30;;;;;;;;;;486556;28;1270;-80
2023/09/16 01:21:22;;;;;;;4.78;4.10;;;;;;;;;;487053;28;1528;-81
2023/09/16 01:21:38;;;;;;;4.88;4.20;;;;;;;;;;486472;28;1286;-81
2023/09/16 01:21:55;;;;;;;5.95;4.13;;;;;;;;;;487857;28;1259;-80
2023/09/16 01:22:11;;;;;;;5.55;3.80;;;;;;;;;;492300;28;982;-80
2023/09/16 01:22:27;;;;;;;4.20;3.58;;;;;;;;;;487945;28;2413;-80
2023/09/16 01:22:46;;;;;;;3.90;3.50;;;;;;;;;;490487;28;2066;-80
2023/09/16 01:23:01;;;;;;;3.92;3.50;;;;;;;;;;489316;28;1628;-80
2023/09/16 01:23:20;;;;;;;3.97;3.55;;;;;;;;;;494407;28;1264;-81
2023/09/16 01:23:37;;;;;;;4.40;3.70;;;;;;;;;;487160;28;1178;-80
2023/09/16 01:24:18;;;;;;;3.90;3.50;;;;;;;;;;486428;28;1311;-80
2023/09/16 01:24:34;;;;;;;4.45;3.67;;;;;;;;;;488116;28;999;-80
2023/09/16 01:24:55;;;;;;;4.50;3.72;;;;;;;;;;487571;28;1163;-81
2023/09/16 01:25:12;;;;;;;4.40;3.78;;;;;;;;;;495284;28;1107;-80
2023/09/16 01:25:30;;;;;;;5.43;4.00;;;;;;;;;;490417;28;1346;-79
2023/09/16 01:25:45;;;;;;;4.97;3.83;;;;;;;;;;490343;28;970;-80
2023/09/16 01:26:01;;;;;;;4.57;3.75;;;;;;;;;;490194;28;1263;-80
2023/09/16 01:26:17;;;;;;;4.60;3.92;;;;;;;;;;493135;28;1372;-80
2023/09/16 01:26:32;;;;;;;4.37;3.87;;;;;;;;;;488098;28;1063;-80
2023/09/16 01:26:48;;;;;;;4.85;4.00;;;;;;;;;;486454;28;1186;-80
2023/09/16 01:27:04;;;;;;;4.93;4.00;;;;;;;;;;487735;28;1145;-80
2023/09/16 01:27:20;;;;;;;4.95;3.65;;;;;;;;;;490179;28;1426;-81
2023/09/16 01:27:37;;;;;;;4.75;3.38;;;;;;;;;;487618;28;975;-80
2023/09/16 01:27:54;;;;;;;4.32;3.47;;;;;;;;;;486703;28;1268;-80
2023/09/16 01:28:10;;;;;;;5.65;3.72;;;;;;;;;;491154;28;1007;-80
2023/09/16 01:28:26;;;;;;;5.80;3.90;;;;;;;;;;490230;28;1953;-81
2023/09/16 01:28:41;;;;;;;5.00;3.67;;;;;;;;;;485792;28;1287;-80
2023/09/16 01:28:57;;;;;;;4.78;3.63;;;;;;;;;;487935;28;1169;-81
2023/09/16 01:29:14;;;;;;;5.90;3.80;;;;;;;;;;492960;28;975;-80
2023/09/16 01:29:30;;;;;;;6.10;3.90;;;;;;;;;;490048;28;1428;-81
2023/09/16 01:29:46;;;;;;;4.53;3.78;;;;;;;;;;486646;28;1441;-80
2023/09/16 01:30:03;;;;;;;4.22;3.80;;;;;;;;;;486497;28;1240;-81
2023/09/16 01:30:19;;;;;;;4.82;3.90;;;;;;;;;;491433;28;1634;-80
2023/09/16 01:30:40;;;;;;;5.00;3.90;;;;;;;;;;483319;28;1010;-80
2023/09/16 01:30:57;;;;;;;5.18;4.03;;;;;;;;;;484197;28;1319;-80
2023/09/16 01:31:13;;;;;;;5.55;4.00;;;;;;;;;;491651;28;975;-80
2023/09/16 01:31:29;;;;;;;4.97;3.90;;;;;;;;;;484431;28;1278;-80
2023/09/16 01:31:46;;;;;;;5.35;3.92;;;;;;;;;;489054;28;1323;-80
2023/09/16 01:32:05;;;;;;;5.95;3.92;;;;;;;;;;487550;28;1439;-80
2023/09/16 01:32:31;;;;;;;5.00;4.00;;;;;;;;;;492137;28;986;-81
2023/09/16 01:32:46;;;;;;;4.90;3.78;;;;;;;;;;487595;28;1355;-81
2023/09/16 01:33:37;;;;;;;4.60;3.63;;;;;;;;;;487339;28;1133;-81
2023/09/16 01:33:53;;;;;;;5.78;4.07;;;;;;;;;;480044;28;1543;-79
2023/09/16 01:34:42;;;;;;;5.93;4.00;;;;;;;;;;481593;28;1315;-79
2023/09/16 01:35:01;;;;;;;4.93;4.00;;;;;;;;;;481811;28;1203;-78
2023/09/16 01:35:20;;;;;;;4.90;3.90;;;;;;;;;;488197;28;1314;-79
2023/09/16 01:35:39;;;;;;;5.55;4.07;;;;;;;;;;482334;28;1101;-79
2023/09/16 01:36:03;;;;;;;6.65;4.13;;;;;;;;;;481983;28;1409;-78
2023/09/16 01:36:23;;;;;;;4.80;3.67;;;;;;;;;;485925;28;1010;-78
2023/09/16 01:36:42;;;;;;;4.28;3.67;;;;;;;;;;488193;28;1022;-78
2023/09/16 01:36:59;;;;;;;4.95;4.10;;;;;;;;;;487302;28;1298;-83
2023/09/16 01:37:19;;;;;;;5.57;4.07;;;;;;;;;;494286;28;1189;-78
2023/09/16 01:37:38;;;;;;;6.05;4.13;;;;;;;;;;483091;28;1307;-78
2023/09/16 01:37:55;;;;;;;6.00;4.18;;;;;;;;;;485629;28;1162;-78
2023/09/16 01:38:13;;;;;;;6.57;4.32;;;;;;;;;;491695;28;1358;-78
2023/09/16 01:38:32;;;;;;;5.95;4.25;;;;;;;;;;487994;28;1207;-78
2023/09/16 01:38:51;;;;;;;6.35;4.15;;;;;;;;;;485567;28;1098;-78
2023/09/16 01:39:08;;;;;;;6.47;3.95;;;;;;;;;;489210;28;1179;-78
2023/09/16 01:39:29;;;;;;;5.43;4.00;;;;;;;;;;491501;28;1239;-79
2023/09/16 01:39:59;;;;;;;4.88;4.10;;;;;;;;;;487907;28;1069;-81
2023/09/16 01:40:15;;;;;;;4.45;3.80;;;;;;;;;;491864;28;976;-79
2023/09/16 01:40:33;;;;;;;5.20;4.00;;;;;;;;;;485758;28;1463;-78
2023/09/16 01:40:51;;;;;;;4.82;3.83;;;;;;;;;;488019;28;1269;-78
2023/09/16 01:41:09;;;;;;;5.85;3.95;;;;;;;;;;487758;28;1261;-78
2023/09/16 01:41:26;;;;;;;5.70;4.00;;;;;;;;;;488084;28;1184;-78
2023/09/16 01:41:43;;;;;;;4.88;4.28;;;;;;;;;;486983;28;1104;-79
2023/09/16 01:42:00;;;;;;;5.38;4.28;;;;;;;;;;486433;28;1321;-78
2023/09/16 01:42:18;;;;;;;4.88;3.78;;;;;;;;;;491430;28;1404;-79
2023/09/16 01:42:35;;;;;;;4.55;3.72;;;;;;;;;;485827;28;994;-79
2023/09/16 01:42:51;;;;;;;5.45;3.97;;;;;;;;;;486042;28;1300;-78
2023/09/16 01:43:07;;;;;;;5.00;4.00;;;;;;;;;;487577;28;1026;-79
2023/09/16 01:43:24;;;;;;;5.22;4.03;;;;;;;;;;486442;28;1090;-78
2023/09/16 01:43:41;;;;;;;5.80;4.10;;;;;;;;;;483946;28;1239;-78
2023/09/16 01:43:57;;;;;;;6.60;4.40;;;;;;;;;;484315;28;1323;-78
2023/09/16 01:44:13;;;;;;;6.20;3.95;;;;;;;;;;497111;28;1295;-78
2023/09/16 01:44:29;;;;;;;5.23;3.73;;;;;;;;;;488783;28;1037;-78
2023/09/16 01:44:45;;;;;;;5.97;3.92;;;;;;;;;;484502;28;1264;-79
2023/09/16 01:45:02;;;;;;;5.65;3.90;;;;;;;;;;485065;28;993;-78
2023/09/16 01:45:18;;;;;;;4.80;4.00;;;;;;;;;;492015;28;979;-77
2023/09/16 01:45:43;;;;;;;4.68;4.18;;;;;;;;;;483378;28;1297;-78
2023/09/16 01:45:59;;;;;;;4.53;3.88;;;;;;;;;;482650;28;1408;-79
2023/09/16 01:46:15;;;;;;;5.20;3.90;;;;;;;;;;492045;28;1094;-79